Terminal Aerodrome Forecast
Issued by NWS

Current Version | Previous Version | Graphics & Text | Print | Product List | Glossary On
Versions: 1 2 3 4 5 6 7 8 9 10 11 12 13 14 15 16 17 18 19 20 21 22 23 24 25 26
943
FTUS41 KRLX 230130 AAD
TAFCKB
TAF AMD
KCKB 230130Z 2302/2324 25007G20KT 1SM TSRA BKN035 OVC050CB
     FM230200 25006KT 5SM SHRA VCTS OVC050CB
     FM230400 24004KT 5SM SHRA BR OVC015
     FM230700 25004KT 6SM BR OVC015
     FM231300 33004KT P6SM BKN015
     FM231500 32004KT P6SM BKN025
     FM231800 30004KT P6SM SCT040=

USA.gov is the U.S. government's official web portal to all federal, state and local government web resources and services.